sensor_id;sensor_type;location;lat;lon;timestamp;P1;durP1;ratioP1;P2;durP2;ratioP2
20623;SDS011;10471;42.736;23.346;2023-05-07T00:02:13;20.57;;;15.83;;
20623;SDS011;10471;42.736;23.346;2023-05-07T00:04:39;20.50;;;14.90;;
20623;SDS011;10471;42.736;23.346;2023-05-07T00:07:04;20.83;;;15.30;;
20623;SDS011;10471;42.736;23.346;2023-05-07T00:09:30;22.43;;;15.67;;
20623;SDS011;10471;42.736;23.346;2023-05-07T00:11:55;21.10;;;16.00;;
20623;SDS011;10471;42.736;23.346;2023-05-07T00:14:21;20.20;;;15.70;;
20623;SDS011;10471;42.736;23.346;2023-05-07T00:16:46;23.87;;;15.70;;
20623;SDS011;10471;42.736;23.346;2023-05-07T00:19:12;23.00;;;16.23;;
20623;SDS011;10471;42.736;23.346;2023-05-07T00:21:37;25.40;;;16.53;;
20623;SDS011;10471;42.736;23.346;2023-05-07T00:24:02;22.77;;;15.87;;
20623;SDS011;10471;42.736;23.346;2023-05-07T00:26:28;22.50;;;16.17;;
20623;SDS011;10471;42.736;23.346;2023-05-07T00:28:54;21.77;;;16.53;;
20623;SDS011;10471;42.736;23.346;2023-05-07T00:31:19;24.13;;;16.50;;
20623;SDS011;10471;42.736;23.346;2023-05-07T00:33:44;25.60;;;15.93;;
20623;SDS011;10471;42.736;23.346;2023-05-07T00:36:10;21.30;;;16.50;;
20623;SDS011;10471;42.736;23.346;2023-05-07T00:38:35;25.27;;;16.30;;
20623;SDS011;10471;42.736;23.346;2023-05-07T00:41:01;23.20;;;16.33;;
20623;SDS011;10471;42.736;23.346;2023-05-07T00:43:27;25.77;;;18.03;;
20623;SDS011;10471;42.736;23.346;2023-05-07T00:45:53;25.10;;;18.37;;
20623;SDS011;10471;42.736;23.346;2023-05-07T00:48:18;29.27;;;19.83;;
20623;SDS011;10471;42.736;23.346;2023-05-07T00:50:45;28.43;;;21.03;;
20623;SDS011;10471;42.736;23.346;2023-05-07T00:53:10;25.27;;;18.60;;
20623;SDS011;10471;42.736;23.346;2023-05-07T00:55:36;25.90;;;18.53;;
20623;SDS011;10471;42.736;23.346;2023-05-07T00:58:02;22.83;;;17.37;;
20623;SDS011;10471;42.736;23.346;2023-05-07T01:00:28;23.30;;;17.00;;
20623;SDS011;10471;42.736;23.346;2023-05-07T01:02:53;22.27;;;16.37;;
20623;SDS011;10471;42.736;23.346;2023-05-07T01:05:19;23.90;;;17.63;;
20623;SDS011;10471;42.736;23.346;2023-05-07T01:07:47;23.90;;;17.47;;
20623;SDS011;10471;42.736;23.346;2023-05-07T01:10:14;21.37;;;17.03;;
20623;SDS011;10471;42.736;23.346;2023-05-07T01:12:40;24.90;;;17.80;;
20623;SDS011;10471;42.736;23.346;2023-05-07T01:15:06;26.93;;;17.77;;
20623;SDS011;10471;42.736;23.346;2023-05-07T01:17:35;29.97;;;19.47;;
20623;SDS011;10471;42.736;23.346;2023-05-07T01:20:01;39.93;;;22.20;;
20623;SDS011;10471;42.736;23.346;2023-05-07T01:22:35;38.57;;;21.53;;
20623;SDS011;10471;42.736;23.346;2023-05-07T01:25:02;34.53;;;23.10;;
20623;SDS011;10471;42.736;23.346;2023-05-07T01:27:28;50.50;;;22.93;;
20623;SDS011;10471;42.736;23.346;2023-05-07T01:29:54;39.60;;;21.70;;
20623;SDS011;10471;42.736;23.346;2023-05-07T01:32:21;41.00;;;21.87;;
20623;SDS011;10471;42.736;23.346;2023-05-07T01:35:01;36.20;;;21.43;;
20623;SDS011;10471;42.736;23.346;2023-05-07T01:37:30;34.27;;;20.47;;
20623;SDS011;10471;42.736;23.346;2023-05-07T01:39:55;39.63;;;20.33;;
20623;SDS011;10471;42.736;23.346;2023-05-07T01:42:22;33.87;;;20.00;;
20623;SDS011;10471;42.736;23.346;2023-05-07T01:44:47;35.03;;;18.23;;
20623;SDS011;10471;42.736;23.346;2023-05-07T01:47:13;28.13;;;17.70;;
20623;SDS011;10471;42.736;23.346;2023-05-07T01:49:39;30.07;;;17.33;;
20623;SDS011;10471;42.736;23.346;2023-05-07T01:52:06;25.57;;;17.67;;
20623;SDS011;10471;42.736;23.346;2023-05-07T01:54:31;23.57;;;15.87;;
20623;SDS011;10471;42.736;23.346;2023-05-07T01:56:56;22.80;;;15.90;;
20623;SDS011;10471;42.736;23.346;2023-05-07T01:59:22;22.63;;;16.30;;
20623;SDS011;10471;42.736;23.346;2023-05-07T02:01:47;19.90;;;15.67;;
20623;SDS011;10471;42.736;23.346;2023-05-07T02:04:13;21.43;;;15.47;;
20623;SDS011;10471;42.736;23.346;2023-05-07T02:06:38;20.23;;;14.33;;
20623;SDS011;10471;42.736;23.346;2023-05-07T02:09:04;19.93;;;15.10;;
20623;SDS011;10471;42.736;23.346;2023-05-07T02:11:29;20.27;;;14.83;;
20623;SDS011;10471;42.736;23.346;2023-05-07T02:13:55;21.87;;;15.17;;
20623;SDS011;10471;42.736;23.346;2023-05-07T02:16:20;18.33;;;14.40;;
20623;SDS011;10471;42.736;23.346;2023-05-07T02:18:46;18.97;;;14.63;;
20623;SDS011;10471;42.736;23.346;2023-05-07T02:21:12;22.13;;;14.43;;
20623;SDS011;10471;42.736;23.346;2023-05-07T02:23:37;17.43;;;13.97;;
20623;SDS011;10471;42.736;23.346;2023-05-07T02:26:03;18.13;;;13.90;;
20623;SDS011;10471;42.736;23.346;2023-05-07T02:28:29;18.30;;;13.17;;
20623;SDS011;10471;42.736;23.346;2023-05-07T02:30:54;20.37;;;13.67;;
20623;SDS011;10471;42.736;23.346;2023-05-07T02:33:19;19.83;;;13.70;;
20623;SDS011;10471;42.736;23.346;2023-05-07T02:35:45;18.53;;;13.00;;
20623;SDS011;10471;42.736;23.346;2023-05-07T02:38:10;18.10;;;13.63;;
20623;SDS011;10471;42.736;23.346;2023-05-07T02:40:36;20.03;;;13.70;;
20623;SDS011;10471;42.736;23.346;2023-05-07T02:43:04;18.73;;;12.87;;
20623;SDS011;10471;42.736;23.346;2023-05-07T02:45:30;18.07;;;13.40;;
20623;SDS011;10471;42.736;23.346;2023-05-07T02:47:57;18.73;;;13.40;;
20623;SDS011;10471;42.736;23.346;2023-05-07T02:50:22;18.87;;;14.00;;
20623;SDS011;10471;42.736;23.346;2023-05-07T02:52:47;20.43;;;14.77;;
20623;SDS011;10471;42.736;23.346;2023-05-07T02:55:13;22.07;;;14.40;;
20623;SDS011;10471;42.736;23.346;2023-05-07T02:57:38;24.43;;;15.07;;
20623;SDS011;10471;42.736;23.346;2023-05-07T03:00:16;21.40;;;15.70;;
20623;SDS011;10471;42.736;23.346;2023-05-07T03:02:44;30.47;;;23.13;;
20623;SDS011;10471;42.736;23.346;2023-05-07T03:05:10;65.27;;;52.37;;
20623;SDS011;10471;42.736;23.346;2023-05-07T03:07:36;28.67;;;18.97;;
20623;SDS011;10471;42.736;23.346;2023-05-07T03:10:02;22.67;;;16.27;;
20623;SDS011;10471;42.736;23.346;2023-05-07T03:12:28;22.87;;;16.27;;
20623;SDS011;10471;42.736;23.346;2023-05-07T03:14:54;25.77;;;16.80;;
20623;SDS011;10471;42.736;23.346;2023-05-07T03:17:20;23.67;;;17.87;;
20623;SDS011;10471;42.736;23.346;2023-05-07T03:19:45;23.73;;;16.30;;
20623;SDS011;10471;42.736;23.346;2023-05-07T03:22:11;24.70;;;18.07;;
20623;SDS011;10471;42.736;23.346;2023-05-07T03:24:36;24.57;;;16.40;;
20623;SDS011;10471;42.736;23.346;2023-05-07T03:27:02;23.57;;;16.33;;
20623;SDS011;10471;42.736;23.346;2023-05-07T03:29:27;26.23;;;18.77;;
20623;SDS011;10471;42.736;23.346;2023-05-07T03:31:52;35.77;;;29.50;;
20623;SDS011;10471;42.736;23.346;2023-05-07T03:34:18;42.03;;;31.90;;
20623;SDS011;10471;42.736;23.346;2023-05-07T03:36:47;26.93;;;17.60;;
20623;SDS011;10471;42.736;23.346;2023-05-07T03:39:16;31.73;;;24.17;;
20623;SDS011;10471;42.736;23.346;2023-05-07T03:41:41;32.47;;;23.97;;
20623;SDS011;10471;42.736;23.346;2023-05-07T03:44:07;35.90;;;26.97;;
20623;SDS011;10471;42.736;23.346;2023-05-07T03:46:33;36.60;;;28.47;;
20623;SDS011;10471;42.736;23.346;2023-05-07T03:48:58;31.53;;;23.97;;
20623;SDS011;10471;42.736;23.346;2023-05-07T03:51:24;32.23;;;24.87;;
20623;SDS011;10471;42.736;23.346;2023-05-07T03:53:51;31.73;;;23.33;;
20623;SDS011;10471;42.736;23.346;2023-05-07T03:56:22;26.40;;;20.93;;
20623;SDS011;10471;42.736;23.346;2023-05-07T03:58:48;32.20;;;26.33;;
20623;SDS011;10471;42.736;23.346;2023-05-07T04:01:13;32.83;;;25.83;;
20623;SDS011;10471;42.736;23.346;2023-05-07T04:03:39;28.87;;;22.30;;
20623;SDS011;10471;42.736;23.346;2023-05-07T04:06:04;35.30;;;26.67;;
20623;SDS011;10471;42.736;23.346;2023-05-07T04:08:30;22.90;;;17.83;;
20623;SDS011;10471;42.736;23.346;2023-05-07T04:10:56;29.00;;;19.07;;
20623;SDS011;10471;42.736;23.346;2023-05-07T04:13:22;27.47;;;18.93;;
20623;SDS011;10471;42.736;23.346;2023-05-07T04:15:47;26.90;;;17.77;;
20623;SDS011;10471;42.736;23.346;2023-05-07T04:18:14;31.33;;;22.57;;
20623;SDS011;10471;42.736;23.346;2023-05-07T04:20:39;33.37;;;24.43;;
20623;SDS011;10471;42.736;23.346;2023-05-07T04:23:05;25.93;;;17.07;;
20623;SDS011;10471;42.736;23.346;2023-05-07T04:25:30;24.23;;;16.80;;
20623;SDS011;10471;42.736;23.346;2023-05-07T04:27:56;22.30;;;15.73;;
20623;SDS011;10471;42.736;23.346;2023-05-07T04:30:21;22.63;;;16.07;;
20623;SDS011;10471;42.736;23.346;2023-05-07T04:32:47;24.63;;;18.57;;
20623;SDS011;10471;42.736;23.346;2023-05-07T04:35:13;28.60;;;20.03;;
20623;SDS011;10471;42.736;23.346;2023-05-07T04:37:38;24.10;;;17.57;;
20623;SDS011;10471;42.736;23.346;2023-05-07T04:40:04;23.60;;;19.20;;
20623;SDS011;10471;42.736;23.346;2023-05-07T04:42:29;24.13;;;16.67;;
20623;SDS011;10471;42.736;23.346;2023-05-07T04:44:56;31.17;;;19.73;;
20623;SDS011;10471;42.736;23.346;2023-05-07T04:47:21;26.33;;;18.57;;
20623;SDS011;10471;42.736;23.346;2023-05-07T04:49:47;20.07;;;14.50;;
20623;SDS011;10471;42.736;23.346;2023-05-07T04:52:12;17.33;;;13.43;;
20623;SDS011;10471;42.736;23.346;2023-05-07T04:54:37;17.27;;;13.73;;
20623;SDS011;10471;42.736;23.346;2023-05-07T04:57:03;18.77;;;13.30;;
20623;SDS011;10471;42.736;23.346;2023-05-07T04:59:29;17.23;;;13.97;;
20623;SDS011;10471;42.736;23.346;2023-05-07T05:01:55;18.00;;;13.80;;
20623;SDS011;10471;42.736;23.346;2023-05-07T05:04:20;16.70;;;13.60;;
20623;SDS011;10471;42.736;23.346;2023-05-07T05:06:46;18.03;;;13.37;;
20623;SDS011;10471;42.736;23.346;2023-05-07T05:09:11;21.37;;;15.03;;
20623;SDS011;10471;42.736;23.346;2023-05-07T05:11:37;19.73;;;14.37;;
20623;SDS011;10471;42.736;23.346;2023-05-07T05:14:02;20.90;;;15.27;;
20623;SDS011;10471;42.736;23.346;2023-05-07T05:16:27;19.57;;;13.57;;
20623;SDS011;10471;42.736;23.346;2023-05-07T05:18:53;17.63;;;14.10;;
20623;SDS011;10471;42.736;23.346;2023-05-07T05:21:20;19.27;;;14.30;;
20623;SDS011;10471;42.736;23.346;2023-05-07T05:23:46;19.80;;;13.67;;
20623;SDS011;10471;42.736;23.346;2023-05-07T05:26:11;19.70;;;14.57;;
20623;SDS011;10471;42.736;23.346;2023-05-07T05:28:36;19.10;;;14.17;;
20623;SDS011;10471;42.736;23.346;2023-05-07T05:31:02;19.40;;;14.67;;
20623;SDS011;10471;42.736;23.346;2023-05-07T05:33:27;20.83;;;14.60;;
20623;SDS011;10471;42.736;23.346;2023-05-07T05:35:55;20.07;;;15.50;;
20623;SDS011;10471;42.736;23.346;2023-05-07T05:38:21;23.13;;;16.47;;
20623;SDS011;10471;42.736;23.346;2023-05-07T05:40:46;21.33;;;14.93;;
20623;SDS011;10471;42.736;23.346;2023-05-07T05:43:13;19.20;;;14.67;;
20623;SDS011;10471;42.736;23.346;2023-05-07T05:45:39;18.23;;;13.63;;
20623;SDS011;10471;42.736;23.346;2023-05-07T05:48:05;19.47;;;14.70;;
20623;SDS011;10471;42.736;23.346;2023-05-07T05:50:30;16.30;;;13.50;;
20623;SDS011;10471;42.736;23.346;2023-05-07T05:52:56;21.77;;;14.27;;
20623;SDS011;10471;42.736;23.346;2023-05-07T05:55:21;22.60;;;14.50;;
20623;SDS011;10471;42.736;23.346;2023-05-07T05:57:47;19.03;;;15.10;;
20623;SDS011;10471;42.736;23.346;2023-05-07T06:00:13;19.57;;;14.00;;
20623;SDS011;10471;42.736;23.346;2023-05-07T06:02:38;20.70;;;14.47;;
20623;SDS011;10471;42.736;23.346;2023-05-07T06:05:04;18.00;;;14.10;;
20623;SDS011;10471;42.736;23.346;2023-05-07T06:07:30;20.60;;;14.53;;
20623;SDS011;10471;42.736;23.346;2023-05-07T06:09:55;21.00;;;14.13;;
20623;SDS011;10471;42.736;23.346;2023-05-07T06:12:21;20.57;;;13.87;;
20623;SDS011;10471;42.736;23.346;2023-05-07T06:14:46;20.33;;;14.10;;
20623;SDS011;10471;42.736;23.346;2023-05-07T06:17:12;20.37;;;13.80;;
20623;SDS011;10471;42.736;23.346;2023-05-07T06:19:37;17.77;;;13.90;;
20623;SDS011;10471;42.736;23.346;2023-05-07T06:22:03;17.70;;;13.10;;
20623;SDS011;10471;42.736;23.346;2023-05-07T06:24:28;20.83;;;13.60;;
20623;SDS011;10471;42.736;23.346;2023-05-07T06:26:54;21.07;;;13.83;;
20623;SDS011;10471;42.736;23.346;2023-05-07T06:29:19;17.40;;;13.63;;
20623;SDS011;10471;42.736;23.346;2023-05-07T06:31:45;20.23;;;13.60;;
20623;SDS011;10471;42.736;23.346;2023-05-07T06:34:10;17.73;;;13.97;;
20623;SDS011;10471;42.736;23.346;2023-05-07T06:36:39;17.37;;;13.33;;
20623;SDS011;10471;42.736;23.346;2023-05-07T06:39:05;18.77;;;13.63;;
20623;SDS011;10471;42.736;23.346;2023-05-07T06:41:30;18.00;;;13.73;;
20623;SDS011;10471;42.736;23.346;2023-05-07T06:43:56;19.10;;;13.63;;
20623;SDS011;10471;42.736;23.346;2023-05-07T06:46:21;15.70;;;12.77;;
20623;SDS011;10471;42.736;23.346;2023-05-07T06:48:46;19.20;;;13.63;;
20623;SDS011;10471;42.736;23.346;2023-05-07T06:51:12;16.70;;;13.20;;
20623;SDS011;10471;42.736;23.346;2023-05-07T06:53:37;17.03;;;13.37;;
20623;SDS011;10471;42.736;23.346;2023-05-07T06:56:02;16.27;;;12.20;;
20623;SDS011;10471;42.736;23.346;2023-05-07T06:58:28;14.40;;;12.50;;
20623;SDS011;10471;42.736;23.346;2023-05-07T07:00:53;16.50;;;13.87;;
20623;SDS011;10471;42.736;23.346;2023-05-07T07:03:19;16.30;;;12.73;;
20623;SDS011;10471;42.736;23.346;2023-05-07T07:05:45;15.20;;;12.47;;
20623;SDS011;10471;42.736;23.346;2023-05-07T07:08:10;17.30;;;12.50;;
20623;SDS011;10471;42.736;23.346;2023-05-07T07:10:36;16.67;;;12.27;;
20623;SDS011;10471;42.736;23.346;2023-05-07T07:13:01;14.33;;;12.80;;
20623;SDS011;10471;42.736;23.346;2023-05-07T07:15:26;15.33;;;12.23;;
20623;SDS011;10471;42.736;23.346;2023-05-07T07:17:52;16.07;;;12.40;;
20623;SDS011;10471;42.736;23.346;2023-05-07T07:20:17;16.53;;;11.87;;
20623;SDS011;10471;42.736;23.346;2023-05-07T07:22:43;14.93;;;11.93;;
20623;SDS011;10471;42.736;23.346;2023-05-07T07:25:08;14.27;;;11.47;;
20623;SDS011;10471;42.736;23.346;2023-05-07T07:27:34;17.90;;;11.90;;
20623;SDS011;10471;42.736;23.346;2023-05-07T07:29:59;16.43;;;12.97;;
20623;SDS011;10471;42.736;23.346;2023-05-07T07:32:25;16.13;;;12.97;;
20623;SDS011;10471;42.736;23.346;2023-05-07T07:34:51;17.80;;;13.17;;
20623;SDS011;10471;42.736;23.346;2023-05-07T07:37:16;16.03;;;12.40;;
20623;SDS011;10471;42.736;23.346;2023-05-07T07:39:41;14.17;;;12.30;;
20623;SDS011;10471;42.736;23.346;2023-05-07T07:42:07;14.70;;;11.93;;
20623;SDS011;10471;42.736;23.346;2023-05-07T07:44:32;14.47;;;12.17;;
20623;SDS011;10471;42.736;23.346;2023-05-07T07:46:58;15.67;;;12.23;;
20623;SDS011;10471;42.736;23.346;2023-05-07T07:49:23;15.40;;;12.03;;
20623;SDS011;10471;42.736;23.346;2023-05-07T07:51:48;16.50;;;11.83;;
20623;SDS011;10471;42.736;23.346;2023-05-07T07:54:14;14.57;;;12.03;;
20623;SDS011;10471;42.736;23.346;2023-05-07T07:56:39;16.07;;;12.20;;
20623;SDS011;10471;42.736;23.346;2023-05-07T07:59:04;12.97;;;11.47;;
20623;SDS011;10471;42.736;23.346;2023-05-07T08:01:30;15.20;;;11.60;;
20623;SDS011;10471;42.736;23.346;2023-05-07T08:03:56;13.50;;;11.63;;
20623;SDS011;10471;42.736;23.346;2023-05-07T08:06:23;13.80;;;11.67;;
20623;SDS011;10471;42.736;23.346;2023-05-07T08:08:49;16.43;;;11.57;;
20623;SDS011;10471;42.736;23.346;2023-05-07T08:11:14;16.50;;;11.80;;
20623;SDS011;10471;42.736;23.346;2023-05-07T08:13:39;13.07;;;10.83;;
20623;SDS011;10471;42.736;23.346;2023-05-07T08:16:05;13.07;;;9.97;;
20623;SDS011;10471;42.736;23.346;2023-05-07T08:18:30;13.30;;;9.70;;
20623;SDS011;10471;42.736;23.346;2023-05-07T08:20:56;14.10;;;9.67;;
20623;SDS011;10471;42.736;23.346;2023-05-07T08:23:21;13.90;;;10.13;;
20623;SDS011;10471;42.736;23.346;2023-05-07T08:25:48;12.97;;;9.67;;
20623;SDS011;10471;42.736;23.346;2023-05-07T08:28:14;13.23;;;9.90;;
20623;SDS011;10471;42.736;23.346;2023-05-07T08:30:40;15.93;;;9.57;;
20623;SDS011;10471;42.736;23.346;2023-05-07T08:33:05;10.43;;;8.87;;
20623;SDS011;10471;42.736;23.346;2023-05-07T08:35:31;11.43;;;8.43;;
20623;SDS011;10471;42.736;23.346;2023-05-07T08:37:56;8.07;;;6.70;;
20623;SDS011;10471;42.736;23.346;2023-05-07T08:40:23;8.20;;;6.77;;
20623;SDS011;10471;42.736;23.346;2023-05-07T08:42:51;8.83;;;5.80;;
20623;SDS011;10471;42.736;23.346;2023-05-07T08:45:18;9.20;;;6.93;;
20623;SDS011;10471;42.736;23.346;2023-05-07T08:47:46;7.60;;;6.87;;
20623;SDS011;10471;42.736;23.346;2023-05-07T08:50:15;11.07;;;7.50;;
20623;SDS011;10471;42.736;23.346;2023-05-07T08:52:41;9.03;;;7.37;;
20623;SDS011;10471;42.736;23.346;2023-05-07T08:55:07;10.83;;;7.03;;
20623;SDS011;10471;42.736;23.346;2023-05-07T08:57:33;11.10;;;7.10;;
20623;SDS011;10471;42.736;23.346;2023-05-07T08:59:58;13.37;;;6.80;;
20623;SDS011;10471;42.736;23.346;2023-05-07T09:02:24;9.37;;;6.30;;
20623;SDS011;10471;42.736;23.346;2023-05-07T09:04:49;9.13;;;6.30;;
20623;SDS011;10471;42.736;23.346;2023-05-07T09:07:15;6.40;;;5.53;;
20623;SDS011;10471;42.736;23.346;2023-05-07T09:09:41;8.60;;;6.20;;
20623;SDS011;10471;42.736;23.346;2023-05-07T09:12:08;7.30;;;5.53;;
20623;SDS011;10471;42.736;23.346;2023-05-07T09:14:34;6.37;;;5.37;;
20623;SDS011;10471;42.736;23.346;2023-05-07T09:17:00;6.77;;;6.00;;
20623;SDS011;10471;42.736;23.346;2023-05-07T09:19:26;9.43;;;7.00;;
20623;SDS011;10471;42.736;23.346;2023-05-07T09:22:02;7.03;;;6.30;;
20623;SDS011;10471;42.736;23.346;2023-05-07T09:24:28;10.67;;;7.10;;
20623;SDS011;10471;42.736;23.346;2023-05-07T09:26:58;9.07;;;6.90;;
20623;SDS011;10471;42.736;23.346;2023-05-07T09:29:25;9.33;;;6.77;;
20623;SDS011;10471;42.736;23.346;2023-05-07T09:31:50;8.57;;;6.50;;
20623;SDS011;10471;42.736;23.346;2023-05-07T09:34:16;13.10;;;6.80;;
20623;SDS011;10471;42.736;23.346;2023-05-07T09:36:41;10.83;;;7.10;;
20623;SDS011;10471;42.736;23.346;2023-05-07T09:39:07;8.23;;;6.90;;
20623;SDS011;10471;42.736;23.346;2023-05-07T09:41:32;8.90;;;6.40;;
20623;SDS011;10471;42.736;23.346;2023-05-07T09:43:59;8.07;;;5.90;;
20623;SDS011;10471;42.736;23.346;2023-05-07T09:46:30;9.00;;;6.10;;
20623;SDS011;10471;42.736;23.346;2023-05-07T09:48:57;7.70;;;5.27;;
20623;SDS011;10471;42.736;23.346;2023-05-07T09:51:24;5.77;;;4.53;;
20623;SDS011;10471;42.736;23.346;2023-05-07T09:53:54;7.33;;;5.13;;
20623;SDS011;10471;42.736;23.346;2023-05-07T09:56:21;7.67;;;4.97;;
20623;SDS011;10471;42.736;23.346;2023-05-07T09:58:48;7.20;;;5.30;;
20623;SDS011;10471;42.736;23.346;2023-05-07T10:01:15;8.00;;;5.30;;
20623;SDS011;10471;42.736;23.346;2023-05-07T10:03:44;8.50;;;5.33;;
20623;SDS011;10471;42.736;23.346;2023-05-07T10:06:10;7.60;;;4.87;;
20623;SDS011;10471;42.736;23.346;2023-05-07T10:08:38;5.40;;;3.73;;
20623;SDS011;10471;42.736;23.346;2023-05-07T10:11:04;5.60;;;3.50;;
20623;SDS011;10471;42.736;23.346;2023-05-07T10:13:31;4.53;;;3.77;;
20623;SDS011;10471;42.736;23.346;2023-05-07T10:16:00;4.37;;;3.37;;
20623;SDS011;10471;42.736;23.346;2023-05-07T10:18:27;4.20;;;3.80;;
20623;SDS011;10471;42.736;23.346;2023-05-07T10:20:58;4.43;;;3.80;;
20623;SDS011;10471;42.736;23.346;2023-05-07T10:23:31;5.13;;;3.73;;
20623;SDS011;10471;42.736;23.346;2023-05-07T10:25:58;5.17;;;3.80;;
20623;SDS011;10471;42.736;23.346;2023-05-07T10:28:27;6.47;;;3.87;;
20623;SDS011;10471;42.736;23.346;2023-05-07T10:31:01;5.20;;;3.30;;
20623;SDS011;10471;42.736;23.346;2023-05-07T10:33:29;4.30;;;3.10;;
20623;SDS011;10471;42.736;23.346;2023-05-07T10:35:59;6.70;;;3.70;;
20623;SDS011;10471;42.736;23.346;2023-05-07T10:38:27;6.53;;;3.50;;
20623;SDS011;10471;42.736;23.346;2023-05-07T10:40:53;4.47;;;3.20;;
20623;SDS011;10471;42.736;23.346;2023-05-07T10:43:18;6.73;;;3.60;;
20623;SDS011;10471;42.736;23.346;2023-05-07T10:45:49;3.63;;;3.33;;
20623;SDS011;10471;42.736;23.346;2023-05-07T10:48:50;4.90;;;3.47;;
20623;SDS011;10471;42.736;23.346;2023-05-07T10:51:27;6.70;;;3.83;;
20623;SDS011;10471;42.736;23.346;2023-05-07T10:56:35;4.23;;;3.83;;
20623;SDS011;10471;42.736;23.346;2023-05-07T11:02:01;5.37;;;4.17;;
20623;SDS011;10471;42.736;23.346;2023-05-07T11:04:28;5.30;;;3.70;;
20623;SDS011;10471;42.736;23.346;2023-05-07T11:15:11;4.13;;;3.73;;
20623;SDS011;10471;42.736;23.346;2023-05-07T11:17:53;5.03;;;4.30;;
20623;SDS011;10471;42.736;23.346;2023-05-07T11:26:01;4.57;;;4.00;;
20623;SDS011;10471;42.736;23.346;2023-05-07T11:28:28;5.13;;;3.37;;
20623;SDS011;10471;42.736;23.346;2023-05-07T11:30:55;3.40;;;3.10;;
20623;SDS011;10471;42.736;23.346;2023-05-07T11:33:22;3.80;;;3.50;;
20623;SDS011;10471;42.736;23.346;2023-05-07T11:35:47;4.77;;;3.60;;
20623;SDS011;10471;42.736;23.346;2023-05-07T11:38:13;4.73;;;3.57;;
20623;SDS011;10471;42.736;23.346;2023-05-07T11:40:57;4.90;;;3.00;;
20623;SDS011;10471;42.736;23.346;2023-05-07T11:43:27;4.03;;;3.50;;
20623;SDS011;10471;42.736;23.346;2023-05-07T11:45:53;4.40;;;3.57;;
20623;SDS011;10471;42.736;23.346;2023-05-07T11:48:19;5.20;;;3.30;;
20623;SDS011;10471;42.736;23.346;2023-05-07T11:50:50;3.87;;;3.23;;
20623;SDS011;10471;42.736;23.346;2023-05-07T11:53:24;5.47;;;2.97;;
20623;SDS011;10471;42.736;23.346;2023-05-07T11:55:57;5.10;;;3.73;;
20623;SDS011;10471;42.736;23.346;2023-05-07T11:58:23;5.37;;;3.37;;
20623;SDS011;10471;42.736;23.346;2023-05-07T12:00:50;5.67;;;3.43;;
20623;SDS011;10471;42.736;23.346;2023-05-07T12:03:16;4.30;;;3.90;;
20623;SDS011;10471;42.736;23.346;2023-05-07T12:05:43;4.60;;;3.70;;
20623;SDS011;10471;42.736;23.346;2023-05-07T12:08:13;4.57;;;3.33;;
20623;SDS011;10471;42.736;23.346;2023-05-07T12:10:43;4.43;;;3.07;;
20623;SDS011;10471;42.736;23.346;2023-05-07T12:13:19;3.67;;;3.37;;
20623;SDS011;10471;42.736;23.346;2023-05-07T12:15:54;4.83;;;3.40;;
20623;SDS011;10471;42.736;23.346;2023-05-07T12:18:21;5.80;;;3.50;;
20623;SDS011;10471;42.736;23.346;2023-05-07T12:20:48;4.13;;;3.47;;
20623;SDS011;10471;42.736;23.346;2023-05-07T12:23:14;5.50;;;3.63;;
20623;SDS011;10471;42.736;23.346;2023-05-07T12:25:41;3.33;;;3.03;;
20623;SDS011;10471;42.736;23.346;2023-05-07T12:28:13;3.50;;;3.13;;
20623;SDS011;10471;42.736;23.346;2023-05-07T12:30:40;3.03;;;2.70;;
20623;SDS011;10471;42.736;23.346;2023-05-07T12:33:08;3.70;;;3.00;;
20623;SDS011;10471;42.736;23.346;2023-05-07T12:35:37;3.40;;;3.00;;
20623;SDS011;10471;42.736;23.346;2023-05-07T12:38:07;2.90;;;2.70;;
20623;SDS011;10471;42.736;23.346;2023-05-07T12:40:37;5.03;;;2.87;;
20623;SDS011;10471;42.736;23.346;2023-05-07T12:43:04;6.33;;;3.10;;
20623;SDS011;10471;42.736;23.346;2023-05-07T12:45:29;3.40;;;2.77;;
20623;SDS011;10471;42.736;23.346;2023-05-07T12:47:55;3.50;;;2.83;;
20623;SDS011;10471;42.736;23.346;2023-05-07T12:50:21;3.43;;;3.00;;
20623;SDS011;10471;42.736;23.346;2023-05-07T12:52:47;3.47;;;2.87;;
20623;SDS011;10471;42.736;23.346;2023-05-07T12:55:16;3.63;;;2.80;;
20623;SDS011;10471;42.736;23.346;2023-05-07T12:57:43;4.70;;;3.07;;
20623;SDS011;10471;42.736;23.346;2023-05-07T13:00:13;5.57;;;3.17;;
20623;SDS011;10471;42.736;23.346;2023-05-07T13:02:40;3.33;;;2.60;;
20623;SDS011;10471;42.736;23.346;2023-05-07T13:05:07;5.37;;;3.27;;
20623;SDS011;10471;42.736;23.346;2023-05-07T13:07:33;5.77;;;3.23;;
20623;SDS011;10471;42.736;23.346;2023-05-07T13:09:58;7.07;;;2.97;;
20623;SDS011;10471;42.736;23.346;2023-05-07T13:12:24;3.77;;;2.87;;
20623;SDS011;10471;42.736;23.346;2023-05-07T13:14:49;4.17;;;3.07;;
20623;SDS011;10471;42.736;23.346;2023-05-07T13:17:14;3.73;;;2.77;;
20623;SDS011;10471;42.736;23.346;2023-05-07T13:19:40;3.40;;;3.10;;
20623;SDS011;10471;42.736;23.346;2023-05-07T13:22:05;3.57;;;2.90;;
20623;SDS011;10471;42.736;23.346;2023-05-07T13:24:31;3.87;;;2.90;;
20623;SDS011;10471;42.736;23.346;2023-05-07T13:26:56;3.57;;;2.83;;
20623;SDS011;10471;42.736;23.346;2023-05-07T13:29:22;6.70;;;2.90;;
20623;SDS011;10471;42.736;23.346;2023-05-07T13:31:56;3.77;;;3.00;;
20623;SDS011;10471;42.736;23.346;2023-05-07T13:34:22;3.40;;;3.10;;
20623;SDS011;10471;42.736;23.346;2023-05-07T13:36:47;5.23;;;2.97;;
20623;SDS011;10471;42.736;23.346;2023-05-07T13:39:13;6.37;;;3.20;;
20623;SDS011;10471;42.736;23.346;2023-05-07T13:41:39;2.90;;;2.57;;
20623;SDS011;10471;42.736;23.346;2023-05-07T13:44:04;3.60;;;2.70;;
20623;SDS011;10471;42.736;23.346;2023-05-07T13:46:29;3.90;;;3.00;;
20623;SDS011;10471;42.736;23.346;2023-05-07T13:48:55;4.43;;;3.07;;
20623;SDS011;10471;42.736;23.346;2023-05-07T13:51:21;5.73;;;3.00;;
20623;SDS011;10471;42.736;23.346;2023-05-07T13:53:46;3.13;;;2.70;;
20623;SDS011;10471;42.736;23.346;2023-05-07T13:56:12;5.63;;;3.07;;
20623;SDS011;10471;42.736;23.346;2023-05-07T13:58:37;3.17;;;2.77;;
20623;SDS011;10471;42.736;23.346;2023-05-07T14:01:03;3.30;;;2.80;;
20623;SDS011;10471;42.736;23.346;2023-05-07T14:03:28;7.83;;;3.00;;
20623;SDS011;10471;42.736;23.346;2023-05-07T14:05:56;4.10;;;3.07;;
20623;SDS011;10471;42.736;23.346;2023-05-07T14:08:22;5.10;;;3.00;;
20623;SDS011;10471;42.736;23.346;2023-05-07T14:10:48;7.73;;;3.00;;
20623;SDS011;10471;42.736;23.346;2023-05-07T14:13:13;2.80;;;2.60;;
20623;SDS011;10471;42.736;23.346;2023-05-07T14:15:39;3.27;;;2.97;;
20623;SDS011;10471;42.736;23.346;2023-05-07T14:18:05;3.37;;;3.07;;
20623;SDS011;10471;42.736;23.346;2023-05-07T14:20:30;4.73;;;2.77;;
20623;SDS011;10471;42.736;23.346;2023-05-07T14:22:56;4.10;;;2.93;;
20623;SDS011;10471;42.736;23.346;2023-05-07T14:25:21;4.17;;;3.10;;
20623;SDS011;10471;42.736;23.346;2023-05-07T14:27:47;4.20;;;3.17;;
20623;SDS011;10471;42.736;23.346;2023-05-07T14:30:12;4.83;;;2.97;;
20623;SDS011;10471;42.736;23.346;2023-05-07T14:32:37;3.33;;;2.80;;
20623;SDS011;10471;42.736;23.346;2023-05-07T14:35:03;3.43;;;3.07;;